Time;durP1;ratioP1;P1;durP2;ratioP2;P2;SDS_P1;SDS_P2;PMS_P1;PMS_P2;Temp;Humidity;BMP_temperature;BMP_pressure;BME280_temperature;BME280_humidity;BME280_pressure;Samples;Min_cycle;Max_cycle;Signal;HPM_P1;HPM_P2
2021/01/18 00:00:37;;;;;;;133.38;69.70;;;;;;;;;;5133672;27;20031;-51
2021/01/18 00:03:03;;;;;;;151.32;76.68;;;;;;;;;;5127842;27;20035;-50
2021/01/18 00:05:29;;;;;;;176.85;92.88;;;;;;;;;;5130445;27;20053;-51
2021/01/18 00:07:55;;;;;;;180.20;92.85;;;;;;;;;;5133775;27;20083;-51
2021/01/18 00:10:22;;;;;;;171.18;88.72;;;;;;;;;;5132998;27;20027;-50
2021/01/18 00:12:52;;;;;;;174.80;89.15;;;;;;;;;;5132897;27;20091;-50
2021/01/18 00:15:19;;;;;;;174.35;92.10;;;;;;;;;;5121579;27;20030;-50
2021/01/18 00:17:46;;;;;;;175.68;91.97;;;;;;;;;;5116049;27;20531;-50
2021/01/18 00:20:12;;;;;;;163.30;89.03;;;;;;;;;;5124637;27;20015;-49
2021/01/18 00:22:42;;;;;;;168.88;89.15;;;;;;;;;;5129558;27;20098;-50
2021/01/18 00:25:12;;;;;;;132.70;69.25;;;;;;;;;;5128744;27;20027;-49
2021/01/18 00:27:39;;;;;;;125.55;65.40;;;;;;;;;;5126098;27;20095;-51
2021/01/18 00:30:07;;;;;;;135.68;69.55;;;;;;;;;;5123250;27;20035;-49
2021/01/18 00:32:33;;;;;;;127.75;65.50;;;;;;;;;;5120754;27;20095;-49
2021/01/18 00:34:59;;;;;;;132.32;65.22;;;;;;;;;;5129521;27;20088;-49
2021/01/18 00:37:25;;;;;;;124.60;63.50;;;;;;;;;;5123493;27;20242;-50
2021/01/18 00:39:51;;;;;;;144.93;71.00;;;;;;;;;;5128585;27;20115;-50
2021/01/18 00:42:18;;;;;;;125.65;62.63;;;;;;;;;;5121242;27;20110;-51
2021/01/18 00:44:44;;;;;;;115.50;59.45;;;;;;;;;;5127189;27;20019;-50
2021/01/18 00:47:10;;;;;;;121.25;60.78;;;;;;;;;;5133230;27;20023;-51
2021/01/18 00:49:36;;;;;;;138.50;69.90;;;;;;;;;;5133616;27;20023;-51
2021/01/18 00:52:02;;;;;;;150.40;77.97;;;;;;;;;;5132490;27;20016;-51
2021/01/18 00:54:28;;;;;;;162.27;84.75;;;;;;;;;;5132571;27;20030;-51
2021/01/18 00:56:54;;;;;;;167.00;87.35;;;;;;;;;;5132517;27;20023;-51
2021/01/18 00:59:20;;;;;;;159.38;83.10;;;;;;;;;;5132789;27;20485;-51
2021/01/18 01:01:46;;;;;;;137.15;69.30;;;;;;;;;;5132464;27;20039;-49
2021/01/18 01:04:12;;;;;;;136.75;69.90;;;;;;;;;;5132810;28;20044;-51
2021/01/18 01:06:38;;;;;;;117.53;62.13;;;;;;;;;;5133152;28;20011;-51
2021/01/18 01:09:05;;;;;;;121.43;63.20;;;;;;;;;;5132914;28;20068;-51
2021/01/18 01:11:31;;;;;;;105.43;55.92;;;;;;;;;;5133048;28;20051;-50
2021/01/18 01:13:58;;;;;;;87.88;48.00;;;;;;;;;;5132972;28;20015;-49
2021/01/18 01:16:24;;;;;;;86.40;45.97;;;;;;;;;;5132535;28;20038;-51
2021/01/18 01:18:50;;;;;;;79.97;43.55;;;;;;;;;;5132925;28;20015;-51
2021/01/18 01:21:16;;;;;;;77.05;41.47;;;;;;;;;;5132824;28;20083;-51
2021/01/18 01:23:42;;;;;;;76.22;40.95;;;;;;;;;;5132300;28;20090;-51
2021/01/18 01:26:08;;;;;;;83.97;42.53;;;;;;;;;;5132505;28;20385;-51
2021/01/18 01:28:34;;;;;;;84.30;43.67;;;;;;;;;;5132720;28;20452;-50
2021/01/18 01:31:01;;;;;;;92.68;48.58;;;;;;;;;;5124692;28;20023;-51
2021/01/18 01:33:27;;;;;;;103.00;51.42;;;;;;;;;;5113791;28;20019;-50
2021/01/18 01:35:53;;;;;;;115.32;54.85;;;;;;;;;;5114146;28;20067;-51
2021/01/18 01:38:19;;;;;;;192.57;79.80;;;;;;;;;;5129073;28;20016;-51
2021/01/18 01:40:45;;;;;;;255.15;105.85;;;;;;;;;;5113963;28;20105;-49
2021/01/18 01:43:11;;;;;;;221.45;94.80;;;;;;;;;;5113882;28;20023;-51
2021/01/18 01:45:37;;;;;;;174.88;78.53;;;;;;;;;;5114331;28;20016;-52
2021/01/18 01:48:03;;;;;;;176.35;77.43;;;;;;;;;;5120444;28;20063;-50
2021/01/18 01:50:31;;;;;;;151.63;68.97;;;;;;;;;;5122675;28;20030;-51
2021/01/18 01:52:59;;;;;;;107.68;52.38;;;;;;;;;;5124149;28;20090;-51
2021/01/18 01:55:32;;;;;;;137.68;64.00;;;;;;;;;;5120625;28;20027;-52
2021/01/18 01:57:58;;;;;;;108.18;53.85;;;;;;;;;;5132745;28;20470;-51
2021/01/18 02:00:25;;;;;;;121.45;59.33;;;;;;;;;;5132244;28;20489;-51
2021/01/18 02:02:55;;;;;;;130.20;64.07;;;;;;;;;;5132615;28;20023;-51
2021/01/18 02:05:21;;;;;;;139.40;63.83;;;;;;;;;;5132400;28;20035;-51
2021/01/18 02:07:47;;;;;;;133.65;62.22;;;;;;;;;;5132498;28;20106;-51
2021/01/18 02:10:13;;;;;;;134.60;63.05;;;;;;;;;;5133084;27;20023;-50
2021/01/18 02:12:39;;;;;;;106.85;53.85;;;;;;;;;;5136460;27;20032;-51
2021/01/18 02:15:18;;;;;;;100.18;52.80;;;;;;;;;;5108939;28;20467;-50
2021/01/18 02:17:47;;;;;;;103.63;53.35;;;;;;;;;;5135570;27;20381;-51
2021/01/18 02:20:25;;;;;;;96.53;50.60;;;;;;;;;;5135960;27;20106;-51
2021/01/18 02:22:51;;;;;;;80.03;41.80;;;;;;;;;;5135779;27;20046;-51
2021/01/18 02:25:21;;;;;;;77.95;41.00;;;;;;;;;;5135709;27;20023;-50
2021/01/18 02:27:59;;;;;;;78.18;41.13;;;;;;;;;;5134242;27;20027;-51
2021/01/18 02:30:25;;;;;;;75.30;39.70;;;;;;;;;;5136070;27;20019;-51
2021/01/18 02:33:03;;;;;;;78.72;41.28;;;;;;;;;;5135930;27;20015;-50
2021/01/18 02:35:35;;;;;;;74.47;41.22;;;;;;;;;;5132158;27;20048;-49
2021/01/18 02:38:10;;;;;;;76.88;40.08;;;;;;;;;;5128249;27;20079;-51
2021/01/18 02:40:42;;;;;;;78.90;41.40;;;;;;;;;;5126080;27;20030;-49
2021/01/18 02:43:10;;;;;;;82.80;40.78;;;;;;;;;;5117159;27;20104;-51
2021/01/18 02:45:36;;;;;;;77.75;40.90;;;;;;;;;;5116346;27;20098;-49
2021/01/18 02:48:03;;;;;;;76.13;40.20;;;;;;;;;;5117415;27;20034;-50
2021/01/18 02:50:29;;;;;;;74.30;40.03;;;;;;;;;;5125753;27;20130;-51
2021/01/18 02:52:56;;;;;;;68.45;36.38;;;;;;;;;;5135664;27;20134;-51
2021/01/18 02:55:22;;;;;;;67.18;35.72;;;;;;;;;;5135531;27;20500;-51
2021/01/18 02:57:48;;;;;;;70.57;36.58;;;;;;;;;;5135566;27;20027;-51
2021/01/18 03:00:16;;;;;;;69.43;36.90;;;;;;;;;;5135346;27;20109;-51
2021/01/18 03:02:46;;;;;;;69.50;36.47;;;;;;;;;;5135453;27;20027;-51
2021/01/18 03:05:18;;;;;;;61.53;33.83;;;;;;;;;;5135126;27;20083;-51
2021/01/18 03:07:53;;;;;;;60.97;32.35;;;;;;;;;;5135489;27;20015;-51
2021/01/18 03:10:22;;;;;;;134.43;53.90;;;;;;;;;;5135010;27;20454;-50
2021/01/18 03:12:52;;;;;;;133.38;56.67;;;;;;;;;;5135313;27;20019;-51
2021/01/18 03:15:19;;;;;;;84.57;38.33;;;;;;;;;;5131364;27;20031;-51
2021/01/18 03:17:46;;;;;;;62.20;32.88;;;;;;;;;;5134454;27;20111;-49
2021/01/18 03:20:13;;;;;;;87.55;44.35;;;;;;;;;;5134708;27;20023;-50
2021/01/18 03:22:39;;;;;;;98.07;50.42;;;;;;;;;;5134704;27;20042;-51
2021/01/18 03:25:09;;;;;;;101.97;51.50;;;;;;;;;;5134921;27;20031;-51
2021/01/18 03:27:58;;;;;;;102.88;51.47;;;;;;;;;;5131536;27;20019;-51
2021/01/18 03:30:25;;;;;;;96.75;49.80;;;;;;;;;;5134464;27;20114;-51
2021/01/18 03:32:51;;;;;;;100.70;51.70;;;;;;;;;;5112476;27;20023;-51
2021/01/18 03:35:18;;;;;;;99.40;51.40;;;;;;;;;;5134376;27;20044;-50
2021/01/18 03:37:44;;;;;;;94.72;49.33;;;;;;;;;;5121798;27;20031;-51
2021/01/18 03:40:11;;;;;;;91.32;47.88;;;;;;;;;;5132801;27;20015;-51
2021/01/18 03:42:37;;;;;;;84.93;44.17;;;;;;;;;;5134575;27;20488;-51
2021/01/18 03:45:03;;;;;;;81.97;43.65;;;;;;;;;;5134377;27;20027;-51
2021/01/18 03:47:29;;;;;;;81.68;42.83;;;;;;;;;;5134017;27;20485;-51
2021/01/18 03:49:55;;;;;;;86.35;44.00;;;;;;;;;;5133557;27;20098;-50
2021/01/18 03:52:21;;;;;;;113.10;54.90;;;;;;;;;;5113843;28;20079;-51
2021/01/18 03:54:47;;;;;;;110.13;54.55;;;;;;;;;;5113705;28;20062;-51
2021/01/18 03:57:13;;;;;;;107.50;55.35;;;;;;;;;;5113556;28;20020;-49
2021/01/18 03:59:39;;;;;;;119.80;62.15;;;;;;;;;;5113522;28;20023;-51
2021/01/18 04:02:05;;;;;;;144.18;70.47;;;;;;;;;;5113301;28;20091;-51
2021/01/18 04:04:31;;;;;;;139.52;70.95;;;;;;;;;;5113516;28;20066;-50
2021/01/18 04:06:57;;;;;;;132.48;70.18;;;;;;;;;;5113322;28;20027;-51
2021/01/18 04:09:23;;;;;;;154.38;77.85;;;;;;;;;;5113455;28;20027;-51
2021/01/18 04:11:50;;;;;;;132.50;64.45;;;;;;;;;;5113319;28;20120;-50
2021/01/18 04:14:16;;;;;;;120.93;62.88;;;;;;;;;;5113176;28;20023;-50
2021/01/18 04:16:43;;;;;;;116.57;57.45;;;;;;;;;;5123576;27;20382;-51
2021/01/18 04:19:09;;;;;;;125.57;63.13;;;;;;;;;;5115786;27;20016;-51
2021/01/18 04:21:38;;;;;;;126.22;60.78;;;;;;;;;;5113089;28;20690;-51
2021/01/18 04:24:04;;;;;;;109.28;55.80;;;;;;;;;;5113017;28;20019;-51
2021/01/18 04:26:30;;;;;;;107.57;54.97;;;;;;;;;;5113081;28;20027;-51
2021/01/18 04:28:56;;;;;;;108.68;53.38;;;;;;;;;;5122662;27;20106;-50
2021/01/18 04:31:23;;;;;;;154.05;67.40;;;;;;;;;;5115051;27;20031;-50
2021/01/18 04:33:49;;;;;;;130.35;59.67;;;;;;;;;;5120413;27;20084;-51
2021/01/18 04:36:15;;;;;;;308.85;119.25;;;;;;;;;;5112702;28;20043;-50
2021/01/18 04:38:41;;;;;;;140.10;62.92;;;;;;;;;;5119377;27;20447;-51
2021/01/18 04:41:10;;;;;;;165.20;74.45;;;;;;;;;;5133226;27;20063;-51
2021/01/18 04:43:39;;;;;;;145.77;68.68;;;;;;;;;;5133132;27;20496;-51
2021/01/18 04:46:07;;;;;;;124.88;57.83;;;;;;;;;;5133211;27;20039;-51
2021/01/18 04:48:33;;;;;;;110.07;53.88;;;;;;;;;;5133120;27;20019;-51
2021/01/18 04:51:00;;;;;;;105.63;52.45;;;;;;;;;;5133081;27;20015;-51
2021/01/18 04:53:30;;;;;;;101.45;49.35;;;;;;;;;;5133350;27;20087;-51
2021/01/18 04:56:16;;;;;;;100.18;50.35;;;;;;;;;;5132952;27;20051;-51
2021/01/18 04:58:46;;;;;;;113.93;55.30;;;;;;;;;;5029392;28;20040;-51
2021/01/18 05:01:15;;;;;;;115.28;57.63;;;;;;;;;;5029756;28;20056;-50
2021/01/18 05:03:45;;;;;;;125.38;60.65;;;;;;;;;;5029385;28;20578;-51
2021/01/18 05:06:11;;;;;;;131.00;64.13;;;;;;;;;;5029896;28;20042;-51
2021/01/18 05:08:40;;;;;;;118.85;60.60;;;;;;;;;;5029777;28;20025;-50
2021/01/18 05:11:06;;;;;;;108.28;56.33;;;;;;;;;;5029368;28;20038;-51
2021/01/18 05:13:32;;;;;;;99.05;51.75;;;;;;;;;;5030041;28;20029;-51
2021/01/18 05:15:59;;;;;;;102.53;53.67;;;;;;;;;;5029329;28;20037;-51
2021/01/18 05:18:31;;;;;;;94.13;49.83;;;;;;;;;;5029764;28;20104;-50
2021/01/18 05:20:57;;;;;;;;;;;;;;;;;;5029918;28;20038;-49
2021/01/18 05:23:23;;;;;;;95.22;48.22;;;;;;;;;;5029270;28;19909;-50
2021/01/18 05:25:49;;;;;;;90.65;46.53;;;;;;;;;;5029391;28;20048;-51
2021/01/18 05:28:15;;;;;;;107.68;52.67;;;;;;;;;;5013018;28;20465;-51
2021/01/18 05:30:42;;;;;;;98.75;51.17;;;;;;;;;;5029678;28;20030;-50
2021/01/18 05:33:12;;;;;;;101.47;53.30;;;;;;;;;;5029553;28;20532;-51
2021/01/18 05:35:39;;;;;;;95.85;50.47;;;;;;;;;;5065756;28;20040;-51
2021/01/18 05:38:10;;;;;;;98.53;49.13;;;;;;;;;;5105921;28;20031;-52
2021/01/18 05:40:49;;;;;;;87.43;45.43;;;;;;;;;;5106633;28;20028;-51
2021/01/18 05:43:16;;;;;;;100.70;50.00;;;;;;;;;;5112185;28;20429;-51
2021/01/18 05:45:44;;;;;;;123.75;59.17;;;;;;;;;;5114150;28;20016;-49
2021/01/18 05:48:10;;;;;;;143.40;68.47;;;;;;;;;;5115725;28;20024;-52
2021/01/18 05:50:37;;;;;;;165.77;80.03;;;;;;;;;;5116261;28;20487;-51
2021/01/18 05:53:23;;;;;;;149.48;74.95;;;;;;;;;;5115945;28;20020;-51
2021/01/18 05:55:49;;;;;;;155.55;75.32;;;;;;;;;;5116170;28;20016;-51
2021/01/18 05:58:27;;;;;;;160.70;81.70;;;;;;;;;;5115704;28;20019;-51
2021/01/18 06:00:55;;;;;;;161.63;81.63;;;;;;;;;;5116078;28;20028;-51
2021/01/18 06:03:26;;;;;;;156.10;77.75;;;;;;;;;;5115732;28;20018;-51
2021/01/18 06:05:52;;;;;;;147.77;73.83;;;;;;;;;;5103498;28;20382;-51
2021/01/18 06:08:19;;;;;;;149.55;75.80;;;;;;;;;;5115681;28;20067;-50
2021/01/18 06:10:46;;;;;;;143.45;72.05;;;;;;;;;;5115113;28;20475;-51
2021/01/18 06:13:18;;;;;;;139.95;72.38;;;;;;;;;;5115585;28;20111;-51
2021/01/18 06:15:44;;;;;;;137.05;73.05;;;;;;;;;;5115629;28;20114;-51
2021/01/18 06:18:13;;;;;;;145.10;72.40;;;;;;;;;;5115605;28;20541;-51
2021/01/18 06:20:39;;;;;;;194.98;95.93;;;;;;;;;;5115309;28;20032;-50
2021/01/18 06:23:05;;;;;;;213.52;107.88;;;;;;;;;;5115496;28;20032;-51
2021/01/18 06:25:35;;;;;;;220.35;114.10;;;;;;;;;;5115637;28;20024;-51
2021/01/18 06:28:01;;;;;;;237.93;119.00;;;;;;;;;;5114858;28;20028;-51
2021/01/18 06:30:31;;;;;;;222.13;112.80;;;;;;;;;;5115542;28;20027;-51
2021/01/18 06:32:58;;;;;;;215.57;108.53;;;;;;;;;;5115164;28;20020;-51
2021/01/18 06:35:29;;;;;;;207.40;105.82;;;;;;;;;;5125957;27;20058;-50
2021/01/18 06:38:00;;;;;;;209.50;103.72;;;;;;;;;;5121649;27;20028;-50
2021/01/18 06:40:27;;;;;;;200.25;100.50;;;;;;;;;;5122125;27;20050;-51
2021/01/18 06:42:54;;;;;;;191.43;99.38;;;;;;;;;;5122736;27;20057;-51
2021/01/18 06:45:20;;;;;;;181.35;91.45;;;;;;;;;;5115156;28;20107;-51
2021/01/18 06:47:47;;;;;;;167.18;83.95;;;;;;;;;;5115263;28;20030;-51
2021/01/18 06:50:13;;;;;;;170.35;88.18;;;;;;;;;;5096336;28;20474;-51
2021/01/18 06:52:46;;;;;;;168.75;84.90;;;;;;;;;;5115168;28;20467;-51
2021/01/18 06:55:17;;;;;;;171.52;91.20;;;;;;;;;;5115004;28;20016;-50
2021/01/18 06:57:46;;;;;;;187.75;101.25;;;;;;;;;;5101718;27;20381;-51
2021/01/18 07:00:13;;;;;;;266.52;139.05;;;;;;;;;;5119667;27;20403;-51
2021/01/18 07:02:39;;;;;;;232.30;121.93;;;;;;;;;;5114905;28;20042;-51
2021/01/18 07:05:05;;;;;;;228.57;118.05;;;;;;;;;;5120450;27;20602;-51
2021/01/18 07:07:33;;;;;;;265.23;138.60;;;;;;;;;;5122692;27;20062;-51
2021/01/18 07:10:00;;;;;;;246.77;131.48;;;;;;;;;;5134951;27;20093;-51
2021/01/18 07:12:29;;;;;;;207.85;114.95;;;;;;;;;;5116716;27;20032;-50
2021/01/18 07:15:00;;;;;;;204.07;110.90;;;;;;;;;;5114727;28;20183;-50
2021/01/18 07:17:30;;;;;;;228.75;113.45;;;;;;;;;;5114510;28;20032;-51
2021/01/18 07:19:59;;;;;;;289.48;128.00;;;;;;;;;;5114505;28;20034;-51
2021/01/18 07:22:35;;;;;;;243.95;116.68;;;;;;;;;;5114265;28;20107;-51
2021/01/18 07:25:03;;;;;;;205.13;104.20;;;;;;;;;;5114458;28;20020;-51
2021/01/18 07:27:31;;;;;;;208.70;110.32;;;;;;;;;;5114073;27;20028;-51
2021/01/18 07:30:01;;;;;;;254.10;126.75;;;;;;;;;;5114116;28;20455;-51
2021/01/18 07:32:27;;;;;;;222.60;118.63;;;;;;;;;;5114072;28;20107;-51
2021/01/18 07:34:53;;;;;;;328.80;175.50;;;;;;;;;;5113543;28;20044;-51
2021/01/18 07:37:19;;;;;;;344.00;179.48;;;;;;;;;;5113293;27;20071;-51
2021/01/18 07:39:46;;;;;;;330.13;177.32;;;;;;;;;;5129126;27;20030;-51
2021/01/18 07:42:42;;;;;;;272.23;142.88;;;;;;;;;;5134069;27;20056;-51
2021/01/18 07:45:11;;;;;;;278.10;135.68;;;;;;;;;;5030349;28;20030;-51
2021/01/18 07:47:55;;;;;;;254.30;127.13;;;;;;;;;;5031172;28;20161;-50
2021/01/18 07:50:31;;;;;;;240.90;121.10;;;;;;;;;;5031013;28;20021;-51
2021/01/18 07:52:59;;;;;;;240.60;122.00;;;;;;;;;;5030808;28;20057;-51
2021/01/18 07:55:25;;;;;;;252.57;134.93;;;;;;;;;;5030840;28;20091;-51
2021/01/18 07:57:51;;;;;;;233.93;129.20;;;;;;;;;;5030710;28;20485;-51
2021/01/18 08:00:21;;;;;;;189.75;104.18;;;;;;;;;;5014162;28;20021;-51
2021/01/18 08:03:23;;;;;;;250.05;138.73;;;;;;;;;;5030858;28;20132;-51
2021/01/18 08:05:51;;;;;;;212.48;118.63;;;;;;;;;;4971914;28;20113;-51
2021/01/18 08:08:17;;;;;;;224.75;122.63;;;;;;;;;;4971155;28;20046;-51
2021/01/18 08:10:43;;;;;;;226.07;121.78;;;;;;;;;;4972059;28;20142;-50
2021/01/18 08:13:33;;;;;;;234.98;124.00;;;;;;;;;;4972023;28;20118;-51
2021/01/18 08:16:09;;;;;;;193.07;106.30;;;;;;;;;;4964267;28;20027;-51
2021/01/18 08:18:36;;;;;;;211.95;113.45;;;;;;;;;;4972109;28;20078;-51
2021/01/18 08:21:21;;;;;;;196.43;108.22;;;;;;;;;;4989148;28;20037;-51
2021/01/18 08:23:48;;;;;;;161.90;92.13;;;;;;;;;;5030809;28;20064;-51
2021/01/18 08:26:15;;;;;;;174.95;100.30;;;;;;;;;;5030486;28;20044;-51
2021/01/18 08:28:48;;;;;;;147.23;81.60;;;;;;;;;;5030445;28;20095;-51
2021/01/18 08:31:14;;;;;;;169.38;92.65;;;;;;;;;;5030459;28;20030;-51
2021/01/18 08:33:40;;;;;;;128.35;73.03;;;;;;;;;;5030423;28;20048;-50
2021/01/18 08:36:07;;;;;;;138.35;79.75;;;;;;;;;;5030064;28;20080;-51
2021/01/18 08:38:33;;;;;;;145.38;84.45;;;;;;;;;;5025399;28;20037;-51
2021/01/18 08:41:03;;;;;;;245.65;131.15;;;;;;;;;;5104051;28;20071;-51
2021/01/18 08:43:51;;;;;;;175.43;96.80;;;;;;;;;;5094593;28;20015;-51
2021/01/18 08:46:50;;;;;;;168.27;94.55;;;;;;;;;;5092670;28;20024;-52
2021/01/18 08:49:31;;;;;;;135.32;70.97;;;;;;;;;;5048951;28;20046;-51
2021/01/18 08:51:58;;;;;;;140.67;77.40;;;;;;;;;;5052147;28;20033;-50
2021/01/18 08:54:37;;;;;;;118.93;64.25;;;;;;;;;;5050379;28;20146;-50
2021/01/18 08:57:31;;;;;;;101.78;58.28;;;;;;;;;;5050091;28;20492;-51
2021/01/18 09:00:16;;;;;;;121.63;63.55;;;;;;;;;;5010227;28;20044;-50
2021/01/18 09:02:42;;;;;;;110.30;57.95;;;;;;;;;;5010545;28;20025;-52
2021/01/18 09:05:26;;;;;;;108.50;60.40;;;;;;;;;;5010235;28;20052;-51
2021/01/18 09:07:53;;;;;;;105.90;55.63;;;;;;;;;;5010393;28;20056;-51
2021/01/18 09:10:20;;;;;;;91.78;50.55;;;;;;;;;;5009996;28;20068;-52
2021/01/18 09:12:47;;;;;;;119.55;58.35;;;;;;;;;;5009890;28;20185;-51
2021/01/18 09:15:14;;;;;;;146.75;73.60;;;;;;;;;;5010237;28;20435;-52
2021/01/18 09:17:40;;;;;;;95.85;51.65;;;;;;;;;;5009931;28;20160;-51
2021/01/18 09:20:07;;;;;;;87.85;49.90;;;;;;;;;;5012444;28;20089;-51
2021/01/18 09:22:36;;;;;;;109.07;60.13;;;;;;;;;;5013911;28;20133;-52
2021/01/18 09:25:02;;;;;;;69.72;40.50;;;;;;;;;;5048603;28;20036;-52
2021/01/18 09:27:28;;;;;;;69.97;40.13;;;;;;;;;;5073373;28;20462;-51
2021/01/18 09:30:00;;;;;;;94.70;53.20;;;;;;;;;;5073724;28;20028;-52
2021/01/18 09:32:26;;;;;;;101.65;60.35;;;;;;;;;;5073363;28;20040;-52
2021/01/18 09:35:04;;;;;;;110.70;63.75;;;;;;;;;;5079758;28;20166;-51
2021/01/18 09:37:30;;;;;;;147.13;84.47;;;;;;;;;;5115807;28;20421;-53
2021/01/18 09:39:57;;;;;;;117.85;65.32;;;;;;;;;;5099193;28;20375;-52
2021/01/18 09:42:23;;;;;;;141.55;78.35;;;;;;;;;;5095858;28;20036;-52
2021/01/18 09:44:49;;;;;;;114.18;63.75;;;;;;;;;;5110543;28;20360;-51
2021/01/18 09:47:15;;;;;;;139.75;77.57;;;;;;;;;;5116523;28;20031;-52
2021/01/18 09:49:41;;;;;;;111.22;63.25;;;;;;;;;;5116282;28;20034;-51
2021/01/18 09:52:08;;;;;;;87.93;52.45;;;;;;;;;;5116349;28;20063;-52
2021/01/18 09:54:38;;;;;;;77.68;45.55;;;;;;;;;;5116282;28;20062;-51
2021/01/18 09:57:09;;;;;;;91.63;53.88;;;;;;;;;;5116217;28;20035;-52
2021/01/18 09:59:40;;;;;;;89.25;52.75;;;;;;;;;;5116159;28;20027;-51
2021/01/18 10:02:06;;;;;;;119.88;68.60;;;;;;;;;;5115993;28;20039;-52
2021/01/18 10:04:36;;;;;;;92.85;54.60;;;;;;;;;;5116213;28;20366;-52
2021/01/18 10:07:03;;;;;;;79.25;48.92;;;;;;;;;;5115821;28;20032;-52
2021/01/18 10:09:30;;;;;;;78.15;47.65;;;;;;;;;;5115815;28;20020;-52
2021/01/18 10:12:00;;;;;;;64.50;41.42;;;;;;;;;;5116015;28;20032;-52
2021/01/18 10:14:30;;;;;;;66.63;44.58;;;;;;;;;;5102020;28;20066;-52
2021/01/18 10:17:00;;;;;;;56.70;38.38;;;;;;;;;;5115948;28;20114;-52
2021/01/18 10:19:26;;;;;;;84.30;53.55;;;;;;;;;;5115662;28;20027;-53
2021/01/18 10:21:53;;;;;;;52.72;38.13;;;;;;;;;;5115830;28;20445;-52
2021/01/18 10:24:29;;;;;;;68.72;47.80;;;;;;;;;;5115400;28;20020;-52
2021/01/18 10:27:01;;;;;;;74.00;49.15;;;;;;;;;;5115644;28;20023;-53
2021/01/18 10:29:28;;;;;;;65.05;45.65;;;;;;;;;;5113810;28;20015;-52
2021/01/18 10:31:54;;;;;;;66.97;46.13;;;;;;;;;;5093884;28;20035;-52
2021/01/18 10:34:23;;;;;;;64.82;43.65;;;;;;;;;;5116085;27;20106;-52
2021/01/18 10:36:50;;;;;;;69.50;48.83;;;;;;;;;;5125131;27;20482;-52
2021/01/18 10:39:26;;;;;;;56.50;41.75;;;;;;;;;;5125354;27;20023;-52
2021/01/18 10:41:54;;;;;;;78.00;48.70;;;;;;;;;;5133648;27;20078;-52
2021/01/18 10:44:23;;;;;;;79.60;52.25;;;;;;;;;;5134595;27;20020;-54
2021/01/18 10:46:50;;;;;;;60.13;41.45;;;;;;;;;;5135531;27;20030;-51
2021/01/18 10:49:23;;;;;;;65.20;43.95;;;;;;;;;;5135673;27;20030;-52
2021/01/18 10:51:59;;;;;;;79.70;50.35;;;;;;;;;;5135135;27;20067;-52
2021/01/18 10:54:25;;;;;;;68.47;43.67;;;;;;;;;;5125556;27;20020;-52
2021/01/18 10:56:51;;;;;;;59.58;36.25;;;;;;;;;;5114821;28;20030;-50
2021/01/18 10:59:17;;;;;;;71.22;41.78;;;;;;;;;;5112342;28;20020;-53
2021/01/18 11:02:02;;;;;;;66.55;40.72;;;;;;;;;;5112101;28;20503;-52
2021/01/18 11:04:29;;;;;;;81.78;49.67;;;;;;;;;;5109308;27;20032;-52
2021/01/18 11:06:56;;;;;;;76.55;47.00;;;;;;;;;;5108813;28;20031;-52
2021/01/18 11:09:32;;;;;;;83.93;49.20;;;;;;;;;;5112707;28;20121;-53
2021/01/18 11:11:58;;;;;;;64.68;38.15;;;;;;;;;;5129001;27;20019;-51
2021/01/18 11:14:24;;;;;;;81.80;47.03;;;;;;;;;;5114569;28;20106;-53
2021/01/18 11:16:57;;;;;;;85.93;47.92;;;;;;;;;;5114796;28;20471;-53
2021/01/18 11:19:23;;;;;;;;;;;;;;;;;;5114968;28;20035;-52
2021/01/18 11:21:49;;;;;;;59.70;36.63;;;;;;;;;;5114516;28;19937;-51
2021/01/18 11:24:15;;;;;;;69.25;40.90;;;;;;;;;;5114268;28;20095;-52
2021/01/18 11:26:41;;;;;;;72.78;41.97;;;;;;;;;;5114775;28;20020;-52
2021/01/18 11:29:07;;;;;;;55.17;32.47;;;;;;;;;;5114191;28;20016;-52
2021/01/18 11:31:33;;;;;;;44.50;27.30;;;;;;;;;;5114307;28;20068;-53
2021/01/18 11:33:59;;;;;;;41.08;25.63;;;;;;;;;;5114422;28;20103;-52
2021/01/18 11:36:26;;;;;;;54.70;31.55;;;;;;;;;;5113974;28;20494;-53
2021/01/18 11:38:53;;;;;;;64.63;36.47;;;;;;;;;;5121990;27;20023;-53
2021/01/18 11:41:19;;;;;;;53.90;31.35;;;;;;;;;;5134580;27;20059;-51
2021/01/18 11:43:45;;;;;;;50.47;30.40;;;;;;;;;;5134313;27;20584;-51
2021/01/18 11:46:16;;;;;;;49.33;29.33;;;;;;;;;;5134615;27;20027;-50
2021/01/18 11:48:42;;;;;;;71.93;40.20;;;;;;;;;;5134111;27;20033;-51
2021/01/18 11:51:08;;;;;;;70.20;39.88;;;;;;;;;;5134474;27;20022;-52
2021/01/18 11:53:34;;;;;;;62.40;35.85;;;;;;;;;;5134323;27;20436;-54
2021/01/18 11:56:00;;;;;;;63.35;36.63;;;;;;;;;;5125644;27;20034;-53
2021/01/18 11:58:26;;;;;;;54.17;32.85;;;;;;;;;;5113424;28;20024;-51
2021/01/18 12:00:52;;;;;;;41.50;25.33;;;;;;;;;;5113579;28;20027;-51
2021/01/18 12:03:18;;;;;;;43.78;25.67;;;;;;;;;;5113692;28;20542;-51
2021/01/18 12:05:44;;;;;;;56.10;33.05;;;;;;;;;;5113482;28;20082;-51
2021/01/18 12:08:10;;;;;;;59.42;35.10;;;;;;;;;;5113598;28;20027;-52
2021/01/18 12:10:38;;;;;;;47.53;28.65;;;;;;;;;;5127809;27;20053;-51
2021/01/18 12:13:05;;;;;;;48.20;29.13;;;;;;;;;;5113488;28;20047;-52
2021/01/18 12:15:31;;;;;;;37.92;23.38;;;;;;;;;;5113443;28;20060;-53
2021/01/18 12:17:57;;;;;;;31.33;19.15;;;;;;;;;;5113557;28;20019;-52
2021/01/18 12:20:23;;;;;;;41.15;24.63;;;;;;;;;;5113508;28;20020;-52
2021/01/18 12:22:53;;;;;;;45.95;26.77;;;;;;;;;;5123463;27;20389;-51
2021/01/18 12:25:20;;;;;;;44.28;26.85;;;;;;;;;;5133732;27;20494;-52
2021/01/18 12:27:49;;;;;;;43.38;25.92;;;;;;;;;;5133598;27;20027;-51
2021/01/18 12:30:17;;;;;;;59.75;32.63;;;;;;;;;;5133226;27;20015;-51
2021/01/18 12:32:43;;;;;;;56.95;31.00;;;;;;;;;;5130320;27;20031;-53
2021/01/18 12:35:10;;;;;;;56.33;33.42;;;;;;;;;;5113007;27;20039;-50
2021/01/18 12:37:36;;;;;;;58.38;32.40;;;;;;;;;;5124958;27;20035;-50
2021/01/18 12:40:02;;;;;;;53.45;30.55;;;;;;;;;;5121371;27;20047;-52
2021/01/18 12:42:28;;;;;;;152.23;66.97;;;;;;;;;;5131799;27;20046;-52
2021/01/18 12:44:54;;;;;;;82.40;40.50;;;;;;;;;;5115066;27;20016;-52
2021/01/18 12:47:20;;;;;;;80.00;43.80;;;;;;;;;;5118303;27;20069;-52
2021/01/18 12:49:46;;;;;;;77.50;42.35;;;;;;;;;;5114941;27;20132;-52
2021/01/18 12:52:12;;;;;;;89.32;47.03;;;;;;;;;;5115332;27;20027;-50
2021/01/18 12:54:38;;;;;;;67.60;37.90;;;;;;;;;;5120297;27;20424;-50
2021/01/18 12:57:04;;;;;;;65.55;38.78;;;;;;;;;;5115088;27;20027;-52
2021/01/18 12:59:31;;;;;;;61.78;33.45;;;;;;;;;;5113091;28;20023;-51
2021/01/18 13:01:57;;;;;;;65.15;38.33;;;;;;;;;;5114009;28;20032;-51
2021/01/18 13:04:23;;;;;;;48.03;29.40;;;;;;;;;;5112380;28;20019;-52
2021/01/18 13:06:49;;;;;;;52.90;33.33;;;;;;;;;;5114145;28;20038;-51
2021/01/18 13:09:15;;;;;;;61.70;37.72;;;;;;;;;;5132738;28;20023;-52
2021/01/18 13:11:44;;;;;;;50.30;30.33;;;;;;;;;;5133210;28;20057;-51
2021/01/18 13:14:10;;;;;;;63.55;39.58;;;;;;;;;;5132833;28;20023;-52
2021/01/18 13:16:36;;;;;;;60.88;36.40;;;;;;;;;;5132925;28;20500;-51
2021/01/18 13:19:02;;;;;;;56.17;34.25;;;;;;;;;;5133032;28;20028;-51
2021/01/18 13:21:28;;;;;;;69.38;40.55;;;;;;;;;;5132716;28;20115;-53
2021/01/18 13:23:54;;;;;;;69.47;42.80;;;;;;;;;;5132822;28;20509;-52
2021/01/18 13:26:20;;;;;;;61.85;39.95;;;;;;;;;;5132502;28;20011;-52
2021/01/18 13:28:47;;;;;;;48.22;33.95;;;;;;;;;;5132848;28;20474;-52
2021/01/18 13:31:13;;;;;;;42.30;28.30;;;;;;;;;;5132605;28;20063;-52
2021/01/18 13:33:40;;;;;;;51.72;35.72;;;;;;;;;;5132881;28;20018;-51
2021/01/18 13:36:16;;;;;;;50.92;32.78;;;;;;;;;;5120930;28;20467;-53
2021/01/18 13:38:42;;;;;;;63.08;41.08;;;;;;;;;;5121176;28;20031;-51
2021/01/18 13:41:12;;;;;;;95.43;62.20;;;;;;;;;;5116908;28;20536;-53
2021/01/18 13:43:38;;;;;;;91.78;62.67;;;;;;;;;;5115033;28;20416;-52
2021/01/18 13:46:07;;;;;;;72.10;49.85;;;;;;;;;;5114053;28;20467;-51
2021/01/18 13:48:34;;;;;;;52.80;35.45;;;;;;;;;;5115985;28;20068;-51
2021/01/18 13:51:00;;;;;;;83.85;55.83;;;;;;;;;;5113504;28;20012;-53
2021/01/18 13:53:26;;;;;;;61.45;44.40;;;;;;;;;;5114402;28;20628;-53
2021/01/18 13:55:52;;;;;;;77.63;53.38;;;;;;;;;;5112674;28;20012;-54
2021/01/18 13:58:18;;;;;;;43.60;31.50;;;;;;;;;;5112271;28;20024;-52
2021/01/18 14:00:44;;;;;;;72.20;47.63;;;;;;;;;;5117130;28;20022;-53
2021/01/18 14:03:10;;;;;;;98.50;65.57;;;;;;;;;;5122666;28;20102;-52
2021/01/18 14:05:39;;;;;;;102.05;69.38;;;;;;;;;;5114398;28;20457;-52
2021/01/18 14:08:06;;;;;;;121.32;80.53;;;;;;;;;;5117869;27;20020;-51
2021/01/18 14:10:32;;;;;;;98.18;65.50;;;;;;;;;;5119314;27;20087;-53
2021/01/18 14:12:58;;;;;;;93.15;61.42;;;;;;;;;;5119365;27;20015;-50
2021/01/18 14:15:24;;;;;;;79.60;52.75;;;;;;;;;;5129321;27;20390;-51